Time;durP1;ratioP1;P1;durP2;ratioP2;P2;SDS_P1;SDS_P2;PMS_P1;PMS_P2;Temp;Humidity;BMP_temperature;BMP_pressure;BME280_temperature;BME280_humidity;BME280_pressure;Samples;Min_cycle;Max_cycle;Signal;HPM_P1;HPM_P2
2021/10/02 00:36:00;;;;;;;11.55;6.05;;;12.80;19.50;;;;;;5073503;28;20051;-70
2021/10/02 00:41:35;;;;;;;9.55;6.47;;;12.60;20.10;;;;;;5073805;28;20453;-70
2021/10/02 00:46:49;;;;;;;7.97;5.70;;;12.80;19.60;;;;;;5071838;28;20056;-69
2021/10/02 00:49:17;;;;;;;10.20;6.15;;;12.80;19.30;;;;;;5076092;28;20127;-70
2021/10/02 00:51:47;;;;;;;9.68;6.47;;;12.80;19.50;;;;;;5076828;28;20048;-70
2021/10/02 00:54:15;;;;;;;8.70;6.30;;;12.80;19.40;;;;;;5074383;28;20094;-70
2021/10/02 00:56:47;;;;;;;9.77;6.38;;;12.90;19.40;;;;;;5079465;28;20142;-69
2021/10/02 00:59:17;;;;;;;9.98;6.35;;;12.90;19.70;;;;;;5080400;28;20040;-70
2021/10/02 01:01:53;;;;;;;8.30;5.50;;;12.80;20.20;;;;;;5074699;28;20131;-70
2021/10/02 01:04:30;;;;;;;8.57;5.78;;;12.80;20.10;;;;;;5073968;28;20052;-69
2021/10/02 01:07:10;;;;;;;8.55;5.85;;;12.90;19.80;;;;;;5079925;28;20055;-69
2021/10/02 01:09:58;;;;;;;8.90;5.93;;;12.90;19.30;;;;;;5075227;28;20037;-70
2021/10/02 01:12:36;;;;;;;8.02;5.90;;;13.00;19.10;;;;;;5071570;28;20534;-69
2021/10/02 01:15:09;;;;;;;9.88;6.30;;;13.00;19.00;;;;;;5080185;28;20056;-69
2021/10/02 01:17:46;;;;;;;11.70;6.72;;;13.10;19.40;;;;;;5073598;28;20045;-69
2021/10/02 01:20:22;;;;;;;;;;;13.00;19.50;;;;;;5076757;28;20052;-69
2021/10/02 01:23:01;;;;;;;12.23;6.70;;;13.10;20.10;;;;;;5070212;28;19969;-69
2021/10/02 01:25:51;;;;;;;11.73;6.72;;;13.00;20.30;;;;;;5082451;28;20575;-70
2021/10/02 01:28:21;;;;;;;8.63;5.93;;;13.00;20.50;;;;;;5075961;28;20076;-69
2021/10/02 01:31:02;;;;;;;9.18;6.22;;;13.10;20.40;;;;;;5073737;28;20523;-69
2021/10/02 01:33:40;;;;;;;8.63;6.03;;;13.00;20.60;;;;;;5074484;28;20130;-70
2021/10/02 01:47:52;;;;;;;9.98;6.68;;;12.80;21.20;;;;;;5078244;28;20093;-69
2021/10/02 01:50:23;;;;;;;8.10;5.80;;;12.80;20.90;;;;;;5076873;28;20037;-70
2021/10/02 01:52:58;;;;;;;8.20;5.50;;;12.80;21.30;;;;;;5074830;28;20489;-70
2021/10/02 01:55:29;;;;;;;8.57;5.78;;;12.70;21.60;;;;;;5073977;28;20053;-70
2021/10/02 01:58:01;;;;;;;8.63;5.72;;;12.60;22.10;;;;;;5076228;28;20052;-70
2021/10/02 02:00:36;;;;;;;9.98;5.85;;;12.50;22.60;;;;;;5077005;28;20066;-70
2021/10/02 02:03:06;;;;;;;10.10;5.88;;;12.50;23.80;;;;;;5051982;28;20415;-70
2021/10/02 02:05:37;;;;;;;7.32;5.80;;;12.50;23.80;;;;;;5080230;28;20070;-69
2021/10/02 02:08:10;;;;;;;13.18;5.65;;;12.40;24.00;;;;;;5074278;28;20076;-71
2021/10/02 02:10:40;;;;;;;10.68;7.07;;;12.40;24.00;;;;;;5075391;28;20036;-70
2021/10/02 02:13:11;;;;;;;9.98;6.55;;;12.50;23.80;;;;;;5071890;28;20189;-70
2021/10/02 02:15:45;;;;;;;13.27;6.53;;;12.50;24.00;;;;;;5073090;28;20044;-69
2021/10/02 02:18:18;;;;;;;9.75;6.07;;;12.40;24.60;;;;;;5072507;28;20067;-69
2021/10/02 02:20:54;;;;;;;11.88;8.25;;;12.40;24.90;;;;;;5056477;28;20037;-70
2021/10/02 02:23:25;;;;;;;12.98;8.60;;;12.40;24.90;;;;;;5049799;28;20094;-70
2021/10/02 02:25:54;;;;;;;19.17;10.60;;;12.40;25.00;;;;;;5077447;28;20044;-69
2021/10/02 02:28:26;;;;;;;15.35;10.02;;;12.40;24.90;;;;;;5079537;28;20534;-70
2021/10/02 02:30:56;;;;;;;14.07;8.98;;;12.50;24.90;;;;;;5078029;28;20137;-71
2021/10/02 02:33:24;;;;;;;14.45;9.30;;;12.50;25.00;;;;;;5039871;28;20681;-70
2021/10/02 02:35:54;;;;;;;13.82;8.82;;;12.50;24.80;;;;;;5078578;28;20078;-70
2021/10/02 02:38:26;;;;;;;15.63;8.90;;;12.50;25.50;;;;;;5078069;28;20048;-70
2021/10/02 02:40:55;;;;;;;14.50;8.13;;;12.50;25.20;;;;;;5075013;28;20040;-70
2021/10/02 02:43:32;;;;;;;13.23;8.23;;;12.50;25.20;;;;;;5069963;28;20056;-70
2021/10/02 02:46:09;;;;;;;13.85;8.77;;;12.50;25.80;;;;;;5073078;28;20044;-70
2021/10/02 02:48:49;;;;;;;16.85;9.27;;;12.60;25.80;;;;;;5070870;28;20098;-69
2021/10/02 02:51:27;;;;;;;18.65;9.27;;;12.60;25.70;;;;;;5074016;28;20094;-70
2021/10/02 02:54:03;;;;;;;15.18;9.55;;;12.70;26.50;;;;;;5069119;28;20115;-70
2021/10/02 02:56:40;;;;;;;12.85;8.90;;;12.80;26.10;;;;;;5071050;28;20044;-70
2021/10/02 02:59:12;;;;;;;12.43;8.15;;;12.80;26.00;;;;;;5077420;28;20119;-70
2021/10/02 03:01:44;;;;;;;13.07;8.20;;;12.70;25.00;;;;;;5063813;28;20043;-70
2021/10/02 03:04:17;;;;;;;11.85;8.27;;;12.80;24.90;;;;;;5069861;28;20047;-71
2021/10/02 03:06:49;;;;;;;14.57;8.80;;;12.70;25.70;;;;;;5071830;28;20036;-69
2021/10/02 03:09:18;;;;;;;14.30;8.65;;;12.70;25.20;;;;;;5076777;28;20080;-70
2021/10/02 03:11:52;;;;;;;9.40;7.22;;;12.70;26.20;;;;;;5076035;28;20499;-69
2021/10/02 03:14:21;;;;;;;12.02;7.65;;;12.60;25.80;;;;;;5068003;28;20508;-71
2021/10/02 03:16:54;;;;;;;11.18;7.40;;;12.60;25.60;;;;;;5075791;28;20083;-69
2021/10/02 03:19:23;;;;;;;8.30;6.60;;;12.50;25.50;;;;;;5073519;28;20048;-69
2021/10/02 03:21:53;;;;;;;9.45;6.85;;;12.50;26.00;;;;;;5072612;28;20032;-69
2021/10/02 03:24:24;;;;;;;10.43;7.70;;;12.40;26.10;;;;;;5071270;28;20048;-69
2021/10/02 03:27:01;;;;;;;12.50;7.78;;;12.30;26.40;;;;;;5070047;28;20072;-69
2021/10/02 03:29:31;;;;;;;14.18;7.82;;;12.30;27.10;;;;;;5070587;28;20559;-69
2021/10/02 03:32:01;;;;;;;10.25;7.95;;;12.30;27.40;;;;;;5077849;28;20127;-69
2021/10/02 03:34:33;;;;;;;12.30;7.50;;;12.20;27.10;;;;;;5073611;28;20096;-70
2021/10/02 03:37:02;;;;;;;10.80;7.88;;;12.20;28.00;;;;;;5072281;28;20036;-70
2021/10/02 03:39:30;;;;;;;13.40;8.18;;;12.10;28.20;;;;;;5075910;28;20044;-70
2021/10/02 03:42:09;;;;;;;11.85;7.97;;;12.10;28.40;;;;;;5073455;28;20108;-70
2021/10/02 03:44:40;;;;;;;14.90;9.52;;;12.10;28.90;;;;;;5071659;28;20773;-71
2021/10/02 03:47:11;;;;;;;16.02;8.43;;;12.10;29.10;;;;;;5072296;28;20516;-70
2021/10/02 03:49:45;;;;;;;10.50;7.78;;;12.10;29.50;;;;;;5073069;28;20040;-70
2021/10/02 03:52:14;;;;;;;16.45;8.00;;;12.10;29.30;;;;;;5054334;28;20045;-69
2021/10/02 03:54:43;;;;;;;11.02;7.53;;;12.20;29.60;;;;;;5071958;28;20048;-70
2021/10/02 03:57:16;;;;;;;9.15;7.18;;;12.20;29.30;;;;;;5075909;28;20055;-69
2021/10/02 03:59:45;;;;;;;11.73;8.25;;;12.20;29.40;;;;;;5079029;28;20566;-70
2021/10/02 04:02:17;;;;;;;13.38;8.57;;;12.30;29.60;;;;;;5072667;28;20075;-69
2021/10/02 04:04:46;;;;;;;12.57;8.68;;;12.30;29.20;;;;;;5070456;28;20106;-70
2021/10/02 04:07:14;;;;;;;13.35;8.35;;;12.40;29.00;;;;;;5068327;28;20560;-70
2021/10/02 04:09:42;;;;;;;13.20;8.38;;;12.40;29.00;;;;;;5074676;28;20040;-70
2021/10/02 04:12:14;;;;;;;14.38;8.40;;;12.30;29.10;;;;;;5069740;28;20433;-70
2021/10/02 04:14:43;;;;;;;13.35;9.52;;;12.30;29.70;;;;;;5068859;28;20514;-70
2021/10/02 04:17:11;;;;;;;17.77;10.30;;;12.40;30.50;;;;;;5075554;28;20068;-70
2021/10/02 04:19:41;;;;;;;12.73;10.18;;;12.50;30.60;;;;;;5071016;28;20127;-70
2021/10/02 04:22:10;;;;;;;16.15;9.93;;;12.60;29.90;;;;;;5069583;28;20042;-68
2021/10/02 04:24:41;;;;;;;13.80;9.40;;;12.60;30.00;;;;;;5078889;28;20409;-70
2021/10/02 04:27:13;;;;;;;13.48;9.15;;;12.70;29.70;;;;;;5075965;28;20105;-70
2021/10/02 04:29:41;;;;;;;12.25;8.77;;;12.70;29.20;;;;;;5075990;28;20048;-70
2021/10/02 04:32:09;;;;;;;14.70;8.82;;;12.70;28.60;;;;;;5079587;28;20115;-70
2021/10/02 04:34:41;;;;;;;13.15;8.32;;;12.70;28.50;;;;;;5074409;28;20044;-70
2021/10/02 04:37:09;;;;;;;12.30;7.75;;;12.70;28.50;;;;;;5071311;28;20052;-69
2021/10/02 04:39:41;;;;;;;10.27;7.80;;;12.80;28.10;;;;;;5073556;28;20044;-70
2021/10/02 04:42:13;;;;;;;13.10;8.27;;;12.70;28.20;;;;;;5070548;28;20041;-69
2021/10/02 04:44:46;;;;;;;11.90;7.68;;;12.60;28.40;;;;;;5071714;28;20048;-69
2021/10/02 04:47:19;;;;;;;10.25;7.22;;;12.60;28.90;;;;;;5057096;28;20056;-70
2021/10/02 04:49:49;;;;;;;10.52;7.90;;;12.70;28.20;;;;;;5073674;28;20048;-70
2021/10/02 04:52:17;;;;;;;12.18;7.35;;;12.70;28.40;;;;;;5068883;28;20065;-68
2021/10/02 04:54:47;;;;;;;10.30;6.88;;;12.70;28.30;;;;;;5073561;28;20068;-69
2021/10/02 04:57:15;;;;;;;11.07;7.78;;;12.60;28.30;;;;;;5071885;28;20152;-69
2021/10/02 04:59:44;;;;;;;10.98;7.07;;;12.60;28.40;;;;;;5073488;28;20045;-69
2021/10/02 05:02:15;;;;;;;9.55;7.05;;;12.60;28.50;;;;;;5069459;28;20071;-69
2021/10/02 05:04:48;;;;;;;10.45;7.63;;;12.50;28.90;;;;;;5074974;28;20055;-69
2021/10/02 05:07:19;;;;;;;10.80;7.00;;;12.50;28.80;;;;;;5074583;28;20054;-70
2021/10/02 05:09:47;;;;;;;15.32;7.38;;;12.50;29.60;;;;;;5056969;28;20219;-69
2021/10/02 05:12:15;;;;;;;9.32;6.93;;;12.40;29.40;;;;;;5071688;28;20317;-70
2021/10/02 05:14:45;;;;;;;9.63;6.85;;;12.40;30.20;;;;;;5077295;28;20051;-69
2021/10/02 05:17:17;;;;;;;10.02;7.55;;;12.40;30.00;;;;;;5074799;28;20049;-69
2021/10/02 05:19:48;;;;;;;10.85;7.15;;;12.40;30.50;;;;;;5074661;28;20506;-69
2021/10/02 05:22:16;;;;;;;10.68;7.22;;;12.40;30.00;;;;;;5073722;28;20059;-69
2021/10/02 05:24:45;;;;;;;10.70;7.47;;;12.50;30.00;;;;;;5075379;28;20480;-69
2021/10/02 05:27:14;;;;;;;12.60;6.97;;;12.40;29.90;;;;;;5071332;28;20041;-69
2021/10/02 05:29:46;;;;;;;9.38;6.53;;;12.50;30.60;;;;;;5073022;28;20043;-70
2021/10/02 05:32:18;;;;;;;9.80;6.97;;;12.50;29.90;;;;;;5075188;28;20114;-70
2021/10/02 05:34:52;;;;;;;11.68;7.75;;;12.50;30.00;;;;;;5073607;28;20122;-69
2021/10/02 05:37:20;;;;;;;9.95;6.78;;;12.50;30.10;;;;;;5069816;28;20496;-70
2021/10/02 05:39:48;;;;;;;10.52;6.95;;;12.50;30.40;;;;;;5077861;28;20113;-70
2021/10/02 05:42:16;;;;;;;11.85;7.55;;;12.60;30.40;;;;;;5067876;28;20056;-68
2021/10/02 05:44:45;;;;;;;9.40;7.35;;;12.60;30.50;;;;;;5073389;28;20036;-69
2021/10/02 05:47:14;;;;;;;11.85;7.63;;;12.60;29.80;;;;;;5072487;28;20521;-69
2021/10/02 05:49:42;;;;;;;10.80;7.28;;;12.70;29.10;;;;;;5072603;28;20403;-69
2021/10/02 05:52:13;;;;;;;8.65;6.78;;;12.80;28.80;;;;;;5070823;28;20041;-69
2021/10/02 05:54:41;;;;;;;9.25;6.75;;;12.90;28.60;;;;;;5070956;28;20544;-69
2021/10/02 05:57:12;;;;;;;10.75;7.78;;;13.00;27.20;;;;;;5071038;28;20067;-69
2021/10/02 05:59:40;;;;;;;10.63;7.30;;;13.20;26.30;;;;;;5074066;28;20090;-68
2021/10/02 06:02:08;;;;;;;11.75;7.00;;;13.10;25.20;;;;;;5069123;28;20090;-69
2021/10/02 06:04:39;;;;;;;12.25;6.97;;;13.20;25.50;;;;;;5069723;28;20531;-68
2021/10/02 06:07:13;;;;;;;10.90;7.20;;;13.20;25.10;;;;;;5076710;28;20048;-71
2021/10/02 06:09:48;;;;;;;10.65;7.68;;;13.20;24.90;;;;;;5069624;28;20045;-70
2021/10/02 06:12:16;;;;;;;12.95;8.07;;;13.30;24.30;;;;;;5069952;28;20136;-69
2021/10/02 06:14:46;;;;;;;11.13;7.47;;;13.30;24.80;;;;;;5074531;28;20051;-70
2021/10/02 06:17:17;;;;;;;10.55;7.05;;;13.30;24.30;;;;;;5080440;28;20062;-70
2021/10/02 06:19:49;;;;;;;10.27;6.68;;;13.20;24.20;;;;;;5070127;28;20068;-69
2021/10/02 06:22:21;;;;;;;10.65;6.90;;;13.20;24.80;;;;;;5072595;28;20044;-69
2021/10/02 06:24:53;;;;;;;8.55;6.82;;;13.10;24.70;;;;;;5073573;28;20055;-69
2021/10/02 06:27:21;;;;;;;13.00;7.40;;;13.10;24.80;;;;;;5070071;28;20050;-69
2021/10/02 06:29:49;;;;;;;9.63;7.10;;;13.10;25.20;;;;;;5077190;28;20119;-70
2021/10/02 06:32:17;;;;;;;13.18;7.32;;;13.10;25.00;;;;;;5069298;28;20061;-68
2021/10/02 06:34:50;;;;;;;11.57;7.30;;;13.10;25.20;;;;;;5068329;28;20051;-70
2021/10/02 06:37:18;;;;;;;9.05;7.40;;;13.20;24.90;;;;;;5076227;28;20133;-70
2021/10/02 06:39:47;;;;;;;17.13;8.00;;;13.10;25.40;;;;;;5078444;28;20131;-70
2021/10/02 06:42:16;;;;;;;13.00;7.50;;;13.10;25.90;;;;;;5069469;28;20084;-70
2021/10/02 06:44:44;;;;;;;11.88;8.63;;;13.20;25.10;;;;;;5068260;28;20496;-70
2021/10/02 06:47:15;;;;;;;10.90;7.57;;;13.20;25.20;;;;;;5073464;28;20051;-69
2021/10/02 06:49:44;;;;;;;11.95;7.82;;;13.30;24.70;;;;;;5073117;28;20079;-69
2021/10/02 06:52:12;;;;;;;12.05;8.65;;;13.30;24.30;;;;;;5071718;28;20567;-70
2021/10/02 06:54:40;;;;;;;9.48;7.72;;;13.40;24.40;;;;;;5065785;28;20491;-70
2021/10/02 06:57:14;;;;;;;13.38;7.88;;;13.40;24.40;;;;;;5069808;28;20471;-69
2021/10/02 06:59:47;;;;;;;11.65;8.60;;;13.40;24.40;;;;;;5076752;28;20425;-70
2021/10/02 07:02:15;;;;;;;10.00;8.00;;;13.40;24.40;;;;;;5068666;28;20139;-69
2021/10/02 07:04:45;;;;;;;16.10;8.93;;;13.50;23.30;;;;;;5068417;28;20139;-70
2021/10/02 07:07:15;;;;;;;10.77;8.32;;;13.60;23.00;;;;;;5069253;28;20139;-69
2021/10/02 07:09:44;;;;;;;12.45;8.35;;;13.60;22.60;;;;;;5075029;28;20044;-70
2021/10/02 07:12:23;;;;;;;16.77;8.98;;;13.70;22.10;;;;;;5072657;28;20044;-71
2021/10/02 07:14:51;;;;;;;11.18;8.02;;;13.80;22.10;;;;;;5074121;28;20082;-69
2021/10/02 07:17:25;;;;;;;10.57;7.82;;;13.90;21.20;;;;;;5073114;28;20403;-71
2021/10/02 07:19:58;;;;;;;12.25;8.70;;;13.90;20.60;;;;;;5068970;28;20048;-70
2021/10/02 07:22:27;;;;;;;12.82;8.88;;;14.10;19.30;;;;;;5074962;28;20056;-69
2021/10/02 07:24:57;;;;;;;10.80;7.97;;;14.20;18.90;;;;;;5066794;28;20289;-70
2021/10/02 07:27:26;;;;;;;13.60;8.10;;;14.10;18.20;;;;;;5069696;28;20058;-69
2021/10/02 07:29:54;;;;;;;12.45;7.82;;;14.20;17.90;;;;;;5078086;28;20468;-70
2021/10/02 07:32:23;;;;;;;10.40;8.27;;;14.30;18.00;;;;;;5068731;28;20583;-69
2021/10/02 07:34:52;;;;;;;10.98;7.47;;;14.30;17.80;;;;;;5067762;28;20048;-70
2021/10/02 07:37:21;;;;;;;11.93;7.80;;;14.20;17.90;;;;;;5076620;28;20047;-68
2021/10/02 07:39:53;;;;;;;9.73;7.15;;;14.20;17.90;;;;;;5071231;28;20043;-70
2021/10/02 07:42:21;;;;;;;12.85;7.70;;;14.30;17.90;;;;;;5069606;28;20143;-69
2021/10/02 07:44:56;;;;;;;16.25;8.27;;;14.20;17.90;;;;;;5070693;28;20571;-68
2021/10/02 07:47:32;;;;;;;12.23;8.02;;;14.50;17.20;;;;;;5070610;28;20117;-70
2021/10/02 07:50:01;;;;;;;9.77;6.63;;;14.70;15.80;;;;;;5056756;28;20048;-70
2021/10/02 07:52:33;;;;;;;11.43;7.72;;;14.90;14.10;;;;;;5068062;28;20056;-70
2021/10/02 07:55:08;;;;;;;10.55;7.35;;;15.00;12.90;;;;;;5067874;28;20051;-70
2021/10/02 07:57:40;;;;;;;10.05;7.65;;;15.00;12.70;;;;;;5069705;28;20040;-68
2021/10/02 08:00:14;;;;;;;13.60;7.75;;;15.00;11.90;;;;;;5057508;28;20070;-69
2021/10/02 08:02:44;;;;;;;13.25;7.70;;;15.00;11.60;;;;;;5067716;28;21244;-69
2021/10/02 08:05:13;;;;;;;12.00;7.55;;;15.20;11.30;;;;;;5066950;28;20048;-70
2021/10/02 08:07:43;;;;;;;14.20;7.97;;;15.30;10.70;;;;;;5070240;28;20076;-70
2021/10/02 08:10:21;;;;;;;10.00;6.80;;;15.30;10.30;;;;;;5072371;28;20049;-70
2021/10/02 08:12:49;;;;;;;9.90;7.10;;;15.50;10.90;;;;;;5066768;28;20131;-70
2021/10/02 08:15:19;;;;;;;12.05;7.38;;;15.60;9.00;;;;;;5074201;28;20043;-70
2021/10/02 08:17:49;;;;;;;15.25;6.80;;;15.50;9.20;;;;;;5071031;28;20127;-70
2021/10/02 08:20:20;;;;;;;10.57;7.15;;;15.50;9.90;;;;;;5072383;28;20048;-70
2021/10/02 08:22:58;;;;;;;11.00;6.78;;;15.60;8.40;;;;;;5071274;28;20049;-70
2021/10/02 08:25:29;;;;;;;12.73;6.72;;;15.60;8.20;;;;;;5055783;28;20052;-71
2021/10/02 08:28:03;;;;;;;;;;;15.70;7.80;;;;;;5067273;28;20053;-71
2021/10/02 08:30:33;;;;;;;13.73;6.88;;;16.10;6.80;;;;;;5072530;28;20003;-71
2021/10/02 08:33:01;;;;;;;7.88;6.18;;;16.30;5.20;;;;;;5067966;28;20190;-70
2021/10/02 08:35:29;;;;;;;6.50;5.38;;;16.50;3.90;;;;;;5067727;28;20516;-70
2021/10/02 08:37:57;;;;;;;8.80;5.90;;;16.50;1.00;;;;;;5069548;28;20072;-70
2021/10/02 08:40:25;;;;;;;11.95;5.65;;;16.70;1.00;;;;;;5054333;28;20152;-69
2021/10/02 08:42:55;;;;;;;8.55;5.55;;;17.00;1.00;;;;;;5070854;28;20082;-71
2021/10/02 08:45:24;;;;;;;13.77;5.28;;;17.10;1.00;;;;;;5074921;28;20040;-70
2021/10/02 08:47:56;;;;;;;6.80;4.90;;;17.20;1.00;;;;;;5073383;28;20055;-69
2021/10/02 08:50:27;;;;;;;6.65;4.70;;;17.30;1.00;;;;;;5057492;28;20105;-70
2021/10/02 08:53:00;;;;;;;7.47;5.38;;;17.40;1.00;;;;;;5068436;28;20800;-69
2021/10/02 08:55:29;;;;;;;7.93;5.35;;;17.30;1.00;;;;;;5077726;28;20135;-70
2021/10/02 08:58:01;;;;;;;8.60;5.53;;;17.30;1.00;;;;;;5074088;28;20044;-71
2021/10/02 09:00:33;;;;;;;8.60;5.10;;;17.40;1.00;;;;;;5071786;28;20227;-70
2021/10/02 09:03:03;;;;;;;6.38;4.93;;;17.60;1.00;;;;;;5068910;28;20044;-70
2021/10/02 09:05:37;;;;;;;10.70;5.40;;;17.50;1.00;;;;;;5072284;28;20071;-68
2021/10/02 09:08:08;;;;;;;8.27;5.25;;;17.80;1.00;;;;;;5058031;28;20047;-70
2021/10/02 09:10:38;;;;;;;6.82;4.63;;;17.90;1.00;;;;;;5081477;28;20055;-70
2021/10/02 09:13:11;;;;;;;6.30;4.63;;;17.90;1.00;;;;;;5073971;28;20053;-69
2021/10/02 09:15:39;;;;;;;9.57;5.15;;;17.80;1.00;;;;;;5080482;28;20102;-70
2021/10/02 09:18:09;;;;;;;7.50;5.00;;;17.90;1.00;;;;;;5075085;28;20049;-70
2021/10/02 09:20:40;;;;;;;5.97;4.18;;;18.00;1.00;;;;;;5081690;28;20045;-70
2021/10/02 09:23:10;;;;;;;7.03;4.70;;;18.00;1.00;;;;;;5070707;28;20067;-69
2021/10/02 09:25:48;;;;;;;6.57;4.13;;;18.30;1.00;;;;;;5071855;28;20052;-70
2021/10/02 09:28:18;;;;;;;5.35;3.65;;;18.60;1.00;;;;;;5082563;28;20762;-69
2021/10/02 09:30:47;;;;;;;7.78;3.92;;;18.70;1.00;;;;;;5065271;28;20067;-71
2021/10/02 09:33:22;;;;;;;9.18;3.78;;;18.60;1.00;;;;;;5075461;28;20051;-70
2021/10/02 09:35:54;;;;;;;5.50;3.80;;;18.70;1.00;;;;;;5058595;28;20399;-70
2021/10/02 09:38:23;;;;;;;6.50;4.60;;;18.50;1.00;;;;;;5082000;28;20040;-69
2021/10/02 09:40:58;;;;;;;4.53;3.38;;;18.60;1.00;;;;;;5076868;28;20071;-69
2021/10/02 09:43:28;;;;;;;8.20;3.83;;;18.90;1.00;;;;;;5069612;28;20070;-70
2021/10/02 09:45:56;;;;;;;6.93;3.60;;;19.00;1.00;;;;;;5073050;28;20044;-68
2021/10/02 09:48:30;;;;;;;7.07;3.30;;;18.90;1.00;;;;;;5061838;28;20080;-70
2021/10/02 09:51:04;;;;;;;5.55;3.30;;;19.10;1.00;;;;;;5077702;28;20494;-71
2021/10/02 09:53:39;;;;;;;6.47;3.60;;;19.20;1.00;;;;;;5071567;28;20045;-70
2021/10/02 09:56:10;;;;;;;5.47;3.00;;;19.10;1.00;;;;;;5074615;28;20044;-70
2021/10/02 09:58:39;;;;;;;6.22;3.30;;;19.40;1.00;;;;;;5079334;28;20056;-70
2021/10/02 10:01:21;;;;;;;4.03;2.90;;;19.60;1.00;;;;;;5078745;28;20090;-70
2021/10/02 10:03:51;;;;;;;4.30;2.95;;;19.80;1.00;;;;;;5074367;28;20507;-71
2021/10/02 10:06:22;;;;;;;6.80;3.17;;;19.70;1.00;;;;;;5073555;28;20119;-70
2021/10/02 10:09:08;;;;;;;7.20;4.00;;;19.80;1.00;;;;;;5065773;28;20233;-70
2021/10/02 10:11:45;;;;;;;4.03;2.80;;;19.90;1.00;;;;;;5076763;28;20040;-70
2021/10/02 10:14:21;;;;;;;4.70;2.92;;;19.70;1.00;;;;;;5067007;28;20057;-70
2021/10/02 10:16:49;;;;;;;3.53;2.60;;;20.00;1.00;;;;;;5071040;28;20090;-69
2021/10/02 10:19:20;;;;;;;4.40;2.22;;;20.10;1.00;;;;;;5072001;28;20044;-70
2021/10/02 10:22:04;;;;;;;3.10;2.10;;;20.30;1.00;;;;;;5070835;28;20422;-69
2021/10/02 10:24:32;;;;;;;4.97;2.38;;;20.40;1.00;;;;;;5073086;28;20040;-71
2021/10/02 10:27:01;;;;;;;2.78;2.10;;;20.50;1.00;;;;;;5070860;28;20556;-71
2021/10/02 10:29:40;;;;;;;4.93;2.58;;;20.60;1.00;;;;;;5073340;28;20400;-70
2021/10/02 10:32:10;;;;;;;6.90;2.50;;;20.60;1.00;;;;;;5054296;28;20431;-70
2021/10/02 10:34:43;;;;;;;4.38;2.42;;;20.70;1.00;;;;;;5068490;28;20179;-70
2021/10/02 10:37:12;;;;;;;6.32;2.90;;;21.10;1.00;;;;;;5069794;28;20138;-70
2021/10/02 10:39:44;;;;;;;7.00;2.78;;;21.10;1.00;;;;;;5072192;28;20055;-70
2021/10/02 10:42:14;;;;;;;5.90;2.58;;;20.90;1.00;;;;;;5052462;28;20629;-70
2021/10/02 10:44:43;;;;;;;4.03;2.53;;;21.10;1.00;;;;;;5050857;28;20044;-71
2021/10/02 10:47:12;;;;;;;3.53;2.55;;;21.10;1.00;;;;;;5074876;28;20044;-69
2021/10/02 10:49:41;;;;;;;3.78;2.65;;;21.00;1.00;;;;;;5070432;28;20048;-70
2021/10/02 10:52:14;;;;;;;3.78;2.83;;;21.20;1.00;;;;;;5056341;28;20051;-70
2021/10/02 10:54:44;;;;;;;4.60;2.95;;;21.20;1.00;;;;;;5051657;28;20032;-69
2021/10/02 10:57:33;;;;;;;4.63;2.47;;;21.40;1.00;;;;;;5067647;28;20123;-71
2021/10/02 11:00:03;;;;;;;4.50;2.88;;;21.20;1.00;;;;;;5053584;28;20127;-70
2021/10/02 11:02:50;;;;;;;5.43;2.90;;;21.20;1.00;;;;;;5059985;28;20373;-70
2021/10/02 11:05:48;;;;;;;5.63;2.80;;;21.10;1.00;;;;;;5071189;28;20172;-71
2021/10/02 11:08:20;;;;;;;4.13;2.40;;;21.20;1.00;;;;;;5033169;28;20097;-71
2021/10/02 11:10:52;;;;;;;4.55;2.50;;;21.50;1.00;;;;;;5054163;28;20043;-70
2021/10/02 11:13:22;;;;;;;4.13;2.40;;;21.20;1.00;;;;;;5056730;28;20052;-70
2021/10/02 11:15:51;;;;;;;2.35;1.90;;;21.30;1.00;;;;;;5045382;28;20540;-70
2021/10/02 11:18:43;;;;;;;4.22;3.10;;;21.30;1.00;;;;;;5070945;28;20723;-70
2021/10/02 11:21:19;;;;;;;5.13;2.42;;;21.50;1.00;;;;;;5069344;28;20097;-71
2021/10/02 11:24:16;;;;;;;5.05;2.70;;;21.60;1.00;;;;;;5062232;28;20596;-70
2021/10/02 11:26:58;;;;;;;4.57;2.55;;;21.40;1.00;;;;;;5069995;28;20040;-70
2021/10/02 11:29:29;;;;;;;3.53;2.70;;;21.40;1.00;;;;;;5070828;28;20083;-70
2021/10/02 11:32:25;;;;;;;3.33;2.40;;;21.50;1.00;;;;;;5066358;28;20226;-69
2021/10/02 11:35:14;;;;;;;2.83;2.10;;;21.70;1.00;;;;;;5062168;28;20044;-70
2021/10/02 11:37:49;;;;;;;3.60;2.40;;;21.60;1.00;;;;;;5065456;28;20163;-70
2021/10/02 11:41:00;;;;;;;4.07;2.40;;;21.60;1.00;;;;;;5067380;28;20390;-70
2021/10/02 11:43:33;;;;;;;3.25;2.20;;;21.50;1.00;;;;;;5064120;28;20051;-70
2021/10/02 11:46:07;;;;;;;5.00;2.60;;;21.40;1.00;;;;;;5066099;28;20053;-71
2021/10/02 11:48:44;;;;;;;3.58;2.35;;;21.90;1.00;;;;;;5066805;28;20123;-70
2021/10/02 11:51:20;;;;;;;5.40;2.58;;;22.10;1.00;;;;;;5071622;28;20290;-70
2021/10/02 11:53:54;;;;;;;3.65;2.30;;;22.10;1.00;;;;;;5059584;28;20075;-71
2021/10/02 11:56:24;;;;;;;3.17;2.42;;;22.30;1.00;;;;;;5068724;28;20050;-71
2021/10/02 11:58:55;;;;;;;2.45;2.25;;;22.40;1.00;;;;;;5070393;28;20041;-70
2021/10/02 12:01:26;;;;;;;4.80;2.50;;;22.40;1.00;;;;;;5050709;28;20068;-71
2021/10/02 12:04:05;;;;;;;3.70;2.30;;;22.30;1.00;;;;;;5062710;28;20525;-71
2021/10/02 12:06:40;;;;;;;3.95;2.40;;;22.30;1.00;;;;;;5068026;28;20845;-70
2021/10/02 12:09:15;;;;;;;4.60;2.42;;;22.50;1.00;;;;;;5065804;28;20051;-70
2021/10/02 12:11:46;;;;;;;3.58;2.65;;;22.40;1.00;;;;;;5066468;28;20052;-71
2021/10/02 12:14:18;;;;;;;4.05;2.50;;;22.50;1.00;;;;;;5068254;28;20097;-71
2021/10/02 12:16:51;;;;;;;2.97;2.38;;;22.50;1.00;;;;;;5064730;28;20133;-71
2021/10/02 12:19:21;;;;;;;6.63;2.17;;;22.50;1.00;;;;;;5067183;28;20146;-69
2021/10/02 12:21:51;;;;;;;3.72;2.17;;;22.60;1.00;;;;;;5071241;28;20044;-70
2021/10/02 12:24:26;;;;;;;2.70;2.13;;;22.60;1.00;;;;;;5068057;28;20052;-71
2021/10/02 12:26:58;;;;;;;5.28;2.15;;;22.60;1.00;;;;;;5067133;28;20147;-71
2021/10/02 12:29:31;;;;;;;4.43;2.65;;;22.50;1.00;;;;;;5073142;28;20101;-70
2021/10/02 12:32:04;;;;;;;4.07;2.10;;;22.50;1.00;;;;;;5063682;28;20105;-70
2021/10/02 12:34:37;;;;;;;3.28;2.30;;;22.50;1.00;;;;;;5067122;28;20101;-71
2021/10/02 12:37:09;;;;;;;3.70;1.75;;;22.60;1.00;;;;;;5067187;28;20076;-70
2021/10/02 12:39:45;;;;;;;4.18;2.20;;;22.70;1.00;;;;;;5068138;28;20079;-70
2021/10/02 12:42:17;;;;;;;4.32;2.13;;;22.60;1.00;;;;;;5066199;28;20049;-70
2021/10/02 12:44:49;;;;;;;3.70;2.10;;;22.50;1.00;;;;;;5068892;28;20071;-70
2021/10/02 12:47:23;;;;;;;3.38;2.08;;;22.50;1.00;;;;;;5066710;28;20147;-71
2021/10/02 12:49:54;;;;;;;4.88;2.00;;;22.40;1.00;;;;;;5071394;28;20190;-71
2021/10/02 12:52:23;;;;;;;2.80;2.13;;;22.30;1.00;;;;;;5051709;28;20195;-69
2021/10/02 12:54:59;;;;;;;3.65;2.45;;;22.30;1.00;;;;;;5070899;28;20048;-71
2021/10/02 12:57:31;;;;;;;3.30;2.50;;;22.30;1.00;;;;;;5073314;28;20036;-71
2021/10/02 13:00:05;;;;;;;4.50;2.25;;;22.30;1.00;;;;;;5071547;28;20581;-71
2021/10/02 13:02:40;;;;;;;3.95;2.25;;;22.20;1.00;;;;;;5066763;28;20407;-70
2021/10/02 13:05:13;;;;;;;2.78;2.17;;;22.20;1.00;;;;;;5068088;28;20044;-71
2021/10/02 13:07:48;;;;;;;4.00;2.17;;;22.40;1.00;;;;;;5075132;28;20055;-70
2021/10/02 13:10:20;;;;;;;3.13;2.10;;;22.50;1.00;;;;;;5074706;28;20135;-70
2021/10/02 13:12:55;;;;;;;5.18;2.30;;;22.60;1.00;;;;;;5035164;28;20176;-71
2021/10/02 13:15:27;;;;;;;4.78;2.50;;;22.70;1.00;;;;;;5067988;28;20052;-71
2021/10/02 13:18:03;;;;;;;6.95;2.65;;;22.70;1.00;;;;;;5068782;28;20051;-71
2021/10/02 13:20:33;;;;;;;2.78;2.15;;;22.90;1.00;;;;;;5070327;28;20139;-69
2021/10/02 13:23:08;;;;;;;3.17;2.35;;;23.00;1.00;;;;;;5068380;28;20147;-70
2021/10/02 13:25:42;;;;;;;4.18;2.38;;;22.90;1.00;;;;;;5069088;28;20046;-69
2021/10/02 13:28:21;;;;;;;3.28;2.58;;;23.10;1.00;;;;;;5050428;28;20070;-70
2021/10/02 13:30:52;;;;;;;4.35;2.58;;;23.20;1.00;;;;;;5073227;28;20036;-70
2021/10/02 13:33:23;;;;;;;4.93;2.55;;;23.20;1.00;;;;;;5066911;28;20075;-70
2021/10/02 13:35:54;;;;;;;3.00;2.28;;;23.20;1.00;;;;;;5067100;28;20098;-70
2021/10/02 13:38:37;;;;;;;3.70;2.20;;;23.20;1.00;;;;;;5070381;28;20055;-69
2021/10/02 13:41:31;;;;;;;3.20;2.45;;;23.10;1.00;;;;;;5072715;28;20036;-70
2021/10/02 13:44:05;;;;;;;3.08;2.40;;;23.20;1.00;;;;;;5066724;28;20051;-70
2021/10/02 13:46:35;;;;;;;4.22;2.25;;;23.20;1.00;;;;;;5067202;28;20507;-70
2021/10/02 13:49:09;;;;;;;3.22;2.28;;;23.20;1.00;;;;;;5071537;28;20353;-70
2021/10/02 13:51:42;;;;;;;2.92;2.35;;;23.20;1.00;;;;;;5076533;28;20052;-70
2021/10/02 13:54:11;;;;;;;3.97;2.75;;;23.40;1.00;;;;;;5061710;28;20139;-69
2021/10/02 13:56:43;;;;;;;4.20;2.45;;;23.10;1.00;;;;;;5073966;28;20031;-71
2021/10/02 13:59:12;;;;;;;3.10;2.80;;;23.00;1.00;;;;;;5075028;28;20052;-69
2021/10/02 14:01:41;;;;;;;3.33;2.50;;;23.10;1.00;;;;;;5068108;28;20052;-71
2021/10/02 14:04:13;;;;;;;3.63;2.30;;;23.00;1.00;;;;;;5068277;28;20070;-70
2021/10/02 14:06:48;;;;;;;4.88;2.85;;;22.90;1.00;;;;;;5070880;28;20086;-69